createdAt,value
2019-02-26T00:09:55.829Z,13.23
2019-02-26T00:19:55.663Z,15.17
2019-02-26T00:29:56.919Z,13.70
2019-02-26T00:39:58.187Z,16.27
2019-02-26T00:49:59.434Z,11.27
2019-02-26T01:00:02.773Z,10.10
2019-02-26T01:10:02.035Z,11.87
2019-02-26T01:20:04.023Z,8.20
2019-02-26T01:30:04.600Z,8.47
2019-02-26T01:40:09.394Z,7.90
2019-02-26T01:50:09.383Z,8.37
2019-02-26T02:00:08.485Z,7.07
2019-02-26T02:10:09.732Z,5.30
2019-02-26T02:20:13.121Z,4.23
2019-02-26T02:30:18.587Z,5.20
2019-02-26T02:40:13.542Z,5.67
2019-02-26T02:50:18.225Z,4.73
2019-02-26T03:00:16.919Z,5.47
2019-02-26T03:10:18.209Z,6.00
2019-02-26T03:20:19.488Z,4.77
2019-02-26T03:30:27.406Z,5.17
2019-02-26T03:40:24.145Z,5.03
2019-02-26T03:50:26.429Z,5.37
2019-02-26T04:00:24.658Z,6.70
2019-02-26T04:10:25.929Z,5.37
2019-02-26T04:20:28.014Z,4.33
2019-02-26T04:30:34.029Z,6.70
2019-02-26T04:40:36.337Z,6.43
2019-02-26T04:50:38.740Z,7.53
2019-02-26T05:00:38.682Z,8.13
2019-02-26T05:10:38.999Z,11.67
2019-02-26T05:20:43.153Z,9.90
2019-02-26T05:30:43.844Z,7.23
2019-02-26T05:40:45.109Z,5.77
2019-02-26T05:50:44.970Z,14.50
2019-02-26T06:00:46.266Z,8.57
2019-02-26T06:10:47.521Z,7.27
2019-02-26T06:20:50.914Z,8.43
2019-02-26T06:30:50.070Z,12.37
2019-02-26T06:40:51.493Z,9.40
2019-02-26T06:50:52.668Z,11.07
2019-02-26T07:00:55.481Z,9.33
2019-02-26T07:10:55.261Z,17.87
2019-02-26T07:20:58.278Z,5.20
2019-02-26T07:31:00.202Z,7.93
2019-02-26T07:41:01.904Z,7.50
2019-02-26T07:51:00.913Z,1.93
2019-02-26T08:01:02.195Z,5.57
2019-02-26T08:11:03.480Z,6.20
2019-02-26T08:21:05.528Z,6.13
2019-02-26T08:31:06.818Z,4.63
2019-02-26T08:41:08.129Z,3.17
2019-02-26T08:51:13.484Z,1.83
2019-02-26T09:01:10.753Z,3.77
2019-02-26T09:11:13.552Z,2.00
2019-02-26T09:21:15.158Z,3.40
2019-02-26T09:31:14.677Z,1.07
2019-02-26T09:41:18.880Z,2.57
2019-02-26T09:51:18.018Z,1.37
2019-02-26T10:01:19.300Z,1.83
2019-02-26T10:11:21.396Z,3.07
2019-02-26T10:21:21.912Z,2.83
2019-02-26T10:31:25.030Z,2.92
2019-02-26T10:41:24.506Z,2.65
2019-02-26T10:51:27.057Z,0.65
2019-02-26T11:01:28.868Z,0.57
2019-02-26T11:11:30.493Z,0.23
2019-02-26T11:21:30.204Z,2.03
2019-02-26T11:31:32.302Z,2.73
2019-02-26T11:41:35.929Z,1.77
2019-02-26T11:51:37.360Z,0.90
2019-02-26T12:01:39.422Z,1.17
2019-02-26T12:11:39.192Z,2.00
2019-02-26T12:21:42.588Z,1.03
2019-02-26T12:31:44.031Z,4.97
2019-02-26T12:41:47.990Z,1.07
2019-02-26T12:51:47.612Z,1.37
2019-02-26T16:55:13.495Z,1.80
2019-02-26T17:05:14.264Z,1.23
2019-02-26T17:15:12.452Z,2.33
2019-02-26T17:25:13.789Z,3.40
2019-02-26T17:35:15.838Z,4.23
2019-02-26T17:45:17.168Z,3.80
2019-02-26T17:55:19.534Z,3.53
2019-02-26T18:05:22.667Z,2.53
2019-02-26T18:15:23.939Z,4.60
2019-02-26T18:25:25.220Z,4.73
2019-02-26T18:35:26.480Z,2.23
2019-02-26T18:45:28.751Z,2.87
2019-02-26T18:55:32.318Z,4.57
2019-02-26T19:05:30.625Z,2.33
2019-02-26T19:15:31.933Z,4.10
2019-02-26T19:35:43.468Z,3.73
2019-02-26T19:45:44.968Z,3.73
2019-02-26T20:05:54.706Z,5.23
2019-02-26T20:15:56.009Z,4.53
2019-02-26T20:25:58.032Z,4.63
2019-02-26T20:35:59.295Z,2.87
2019-02-26T20:46:00.578Z,5.10
2019-02-26T20:56:01.861Z,4.70
2019-02-26T21:06:03.137Z,2.33
2019-02-26T21:16:04.413Z,2.53
2019-02-26T21:26:05.688Z,4.80
2019-02-26T21:36:07.732Z,4.93
2019-02-26T21:46:09.016Z,8.83
2019-02-26T21:56:10.280Z,5.57
2019-02-26T22:06:11.652Z,3.20
2019-02-26T22:16:14.918Z,3.77
2019-02-26T22:26:14.993Z,4.63
2019-02-26T22:36:16.262Z,3.80
2019-02-26T22:46:17.536Z,6.20
2019-02-26T22:56:18.791Z,26.33
2019-02-26T23:06:20.809Z,21.20
2019-02-26T23:16:22.857Z,20.97
2019-02-26T23:26:24.136Z,19.23
2019-02-26T23:36:25.718Z,13.93
2019-02-26T23:46:29.541Z,8.47
2019-02-26T23:56:28.040Z,5.77
